Time;durP1;ratioP1;P1;durP2;ratioP2;P2;SDS_P1;SDS_P2;PMS_P1;PMS_P2;Temp;Humidity;BMP_temperature;BMP_pressure;BME280_temperature;BME280_humidity;BME280_pressure;Samples;Min_cycle;Max_cycle;Signal;HPM_P1;HPM_P2
2024/01/19 00:02:19;;;;;;;52.10;27.57;;;;;;;-1.38;86.20;99215.81;5071693;28;20651;-62
2024/01/19 00:04:47;;;;;;;42.83;25.27;;;;;;;-1.40;86.12;99228.41;5076243;28;20255;-58
2024/01/19 00:07:15;;;;;;;45.10;27.03;;;;;;;-1.44;85.74;99228.28;5076456;28;20193;-57
2024/01/19 00:09:43;;;;;;;48.33;25.73;;;;;;;-1.44;86.75;99244.28;5072463;28;20220;-58
2024/01/19 00:12:11;;;;;;;47.63;25.97;;;;;;;-1.44;86.18;99240.91;5069597;28;20225;-60
2024/01/19 00:14:40;;;;;;;45.00;26.23;;;;;;;-1.46;86.26;99238.38;5068194;28;20202;-60
2024/01/19 00:17:08;;;;;;;44.40;25.60;;;;;;;-1.48;86.23;99245.03;5066369;28;20209;-60
2024/01/19 00:19:36;;;;;;;44.27;25.87;;;;;;;-1.48;86.06;99258.53;5072663;28;20532;-58
2024/01/19 00:22:04;;;;;;;50.00;26.57;;;;;;;-1.48;86.01;99262.72;5068529;28;20205;-58
2024/01/19 00:24:32;;;;;;;46.53;26.70;;;;;;;-1.51;85.92;99262.66;5072844;28;20312;-59
2024/01/19 00:27:00;;;;;;;47.73;27.93;;;;;;;-1.50;86.08;99262.69;5070119;28;20251;-57
2024/01/19 00:29:29;;;;;;;52.27;26.63;;;;;;;-1.52;86.17;99271.91;5072793;28;20251;-58
2024/01/19 00:31:58;;;;;;;47.20;25.70;;;;;;;-1.52;86.03;99276.94;5066879;28;20217;-57
2024/01/19 00:34:26;;;;;;;50.60;26.33;;;;;;;-1.52;86.38;99274.44;5070881;28;20664;-53
2024/01/19 00:36:54;;;;;;;45.03;25.70;;;;;;;-1.53;86.34;99284.50;5072626;28;20243;-63
2024/01/19 00:39:22;;;;;;;49.07;27.03;;;;;;;-1.54;86.68;99287.84;5067751;28;20694;-58
2024/01/19 00:41:50;;;;;;;47.53;25.27;;;;;;;-1.57;86.49;99292.84;5072744;28;20574;-59
2024/01/19 00:44:17;;;;;;;45.10;23.80;;;;;;;-1.60;86.36;99298.66;5072893;28;20963;-55
2024/01/19 00:46:47;;;;;;;45.00;24.53;;;;;;;-1.61;86.55;99304.53;5072404;28;20197;-58
2024/01/19 00:49:16;;;;;;;40.63;24.03;;;;;;;-1.61;86.70;99307.06;5068705;28;20236;-56
2024/01/19 00:51:44;;;;;;;43.87;25.17;;;;;;;-1.61;86.82;99317.16;5072684;28;20220;-57
2024/01/19 00:54:12;;;;;;;46.73;25.63;;;;;;;-1.65;85.96;99320.41;5072201;28;20197;-60
2024/01/19 00:56:40;;;;;;;45.73;22.30;;;;;;;-1.76;85.91;99316.78;5069733;28;20793;-58
2024/01/19 00:59:08;;;;;;;43.57;23.80;;;;;;;-1.80;86.26;99336.03;5072179;28;20202;-57
2024/01/19 01:01:36;;;;;;;41.80;22.47;;;;;;;-1.85;86.37;99342.63;5072461;28;20255;-56
2024/01/19 01:04:05;;;;;;;41.83;23.07;;;;;;;-1.91;85.90;99345.00;5072731;28;20674;-57
2024/01/19 01:06:35;;;;;;;38.23;21.73;;;;;;;-1.98;86.34;99355.75;5071230;28;20243;-58
2024/01/19 01:09:03;;;;;;;40.60;21.70;;;;;;;-1.99;86.66;99367.50;5070961;28;20550;-58
2024/01/19 01:11:32;;;;;;;37.07;21.40;;;;;;;-2.05;86.81;99369.84;5070315;28;20584;-58
2024/01/19 01:14:00;;;;;;;37.33;20.57;;;;;;;-2.11;86.59;99369.66;5067461;28;20206;-58
2024/01/19 01:16:29;;;;;;;41.50;21.83;;;;;;;-2.12;87.42;99370.50;5068478;28;20606;-58
2024/01/19 01:18:58;;;;;;;37.83;20.50;;;;;;;-2.11;86.94;99373.88;5072312;28;20724;-58
2024/01/19 01:21:26;;;;;;;34.23;20.07;;;;;;;-2.11;87.39;99378.91;5071160;28;20545;-58
2024/01/19 01:23:55;;;;;;;34.10;20.47;;;;;;;-2.09;87.51;99379.81;5071661;28;20220;-57
2024/01/19 01:26:23;;;;;;;39.23;20.53;;;;;;;-2.06;87.81;99375.72;5071790;28;20240;-58
2024/01/19 01:28:51;;;;;;;39.97;22.07;;;;;;;-2.03;87.29;99378.31;5069600;28;20630;-57
2024/01/19 01:31:19;;;;;;;31.73;18.60;;;;;;;-2.02;87.06;99389.28;5058073;28;20197;-58
2024/01/19 01:33:47;;;;;;;36.47;20.27;;;;;;;-2.03;86.70;99385.88;5071683;28;20201;-58
2024/01/19 01:36:15;;;;;;;36.30;19.20;;;;;;;-2.02;87.18;99382.56;5070801;28;20243;-58
2024/01/19 01:38:43;;;;;;;35.70;20.87;;;;;;;-2.01;86.99;99391.00;5071438;28;20610;-57
2024/01/19 01:41:12;;;;;;;37.10;22.23;;;;;;;-2.03;87.10;99392.59;5071329;28;20205;-59
2024/01/19 01:43:40;;;;;;;32.77;19.30;;;;;;;-2.00;87.32;99396.06;5071622;28;20209;-58
2024/01/19 01:46:08;;;;;;;37.07;19.93;;;;;;;-1.97;87.53;99403.72;5070165;28;20224;-58
2024/01/19 01:48:37;;;;;;;35.97;19.30;;;;;;;-1.99;87.08;99404.50;5061939;28;20233;-57
2024/01/19 01:51:06;;;;;;;36.80;19.00;;;;;;;-1.98;87.41;99412.13;5062961;28;20244;-58
2024/01/19 01:53:34;;;;;;;35.67;19.47;;;;;;;-1.95;87.50;99417.25;5070785;28;20229;-57
2024/01/19 01:56:05;;;;;;;35.03;19.27;;;;;;;-1.92;87.28;99426.56;5071466;28;20717;-58
2024/01/19 01:58:34;;;;;;;38.60;20.73;;;;;;;-1.90;87.28;99427.47;5071097;28;20201;-59
2024/01/19 02:01:02;;;;;;;35.90;19.27;;;;;;;-2.02;86.31;99435.56;5071307;28;20673;-56
2024/01/19 02:03:31;;;;;;;35.30;17.57;;;;;;;-2.09;86.24;99448.81;5069895;28;20193;-58
2024/01/19 02:05:59;;;;;;;27.57;15.13;;;;;;;-2.22;86.13;99446.72;5066779;28;20676;-58
2024/01/19 02:08:27;;;;;;;24.37;14.00;;;;;;;-2.25;86.56;99446.63;5060285;28;20648;-58
2024/01/19 02:10:55;;;;;;;24.00;13.27;;;;;;;-2.34;85.68;99457.31;5065526;28;20210;-58
2024/01/19 02:13:23;;;;;;;28.40;14.67;;;;;;;-2.42;85.91;99460.44;5070131;28;20209;-60
2024/01/19 02:15:55;;;;;;;26.43;13.83;;;;;;;-2.51;85.96;99478.63;5070867;28;20209;-59
2024/01/19 02:18:22;;;;;;;28.93;14.90;;;;;;;-2.60;85.68;99481.75;5071400;28;20276;-58
2024/01/19 02:20:51;;;;;;;25.77;15.37;;;;;;;-2.70;85.58;99469.63;5070691;28;20208;-58
2024/01/19 02:23:20;;;;;;;26.00;14.73;;;;;;;-2.78;86.50;99479.47;5064352;28;20197;-57
2024/01/19 02:25:50;;;;;;;29.07;14.70;;;;;;;-2.82;86.44;99471.78;5065298;28;20625;-58
2024/01/19 02:28:19;;;;;;;28.43;16.40;;;;;;;-2.86;86.62;99485.94;5072950;28;20201;-58
2024/01/19 02:30:47;;;;;;;27.00;14.77;;;;;;;-2.88;87.18;99486.69;5070665;28;20200;-58
2024/01/19 02:33:14;;;;;;;25.80;14.67;;;;;;;-2.91;86.78;99492.47;5070425;28;20210;-58
2024/01/19 02:35:43;;;;;;;24.97;14.30;;;;;;;-2.89;87.23;99500.09;5067295;28;20209;-58
2024/01/19 02:38:11;;;;;;;28.83;14.87;;;;;;;-2.89;87.48;99503.47;5070873;28;20568;-59
2024/01/19 02:40:38;;;;;;;26.70;14.30;;;;;;;-2.94;86.61;99507.53;5069350;28;20209;-58
2024/01/19 02:43:08;;;;;;;29.43;13.93;;;;;;;-2.94;86.95;99499.97;5070634;28;20243;-57
2024/01/19 02:45:36;;;;;;;27.13;14.23;;;;;;;-2.92;86.71;99511.78;5068802;28;20205;-58
2024/01/19 02:48:04;;;;;;;27.90;13.73;;;;;;;-2.93;87.00;99501.66;5067619;28;20653;-56
2024/01/19 02:50:33;;;;;;;27.33;13.97;;;;;;;-2.90;86.72;99516.91;5070051;28;20711;-60
2024/01/19 02:53:01;;;;;;;22.87;13.87;;;;;;;-2.93;86.46;99520.16;5069614;28;20217;-58
2024/01/19 02:55:29;;;;;;;26.63;14.60;;;;;;;-2.91;86.67;99535.31;5070641;28;20564;-58
2024/01/19 02:57:56;;;;;;;25.13;14.03;;;;;;;-2.95;86.49;99536.03;5069395;28;20204;-57
2024/01/19 03:00:26;;;;;;;26.40;13.27;;;;;;;-2.98;86.78;99541.84;5070482;28;20209;-59
2024/01/19 03:02:53;;;;;;;25.07;13.23;;;;;;;-2.99;86.60;99545.16;5070778;28;20197;-58
2024/01/19 03:05:21;;;;;;;27.83;13.50;;;;;;;-3.01;86.79;99544.25;5062544;28;20233;-58
2024/01/19 03:07:49;;;;;;;26.50;13.27;;;;;;;-3.00;86.97;99548.47;5065169;28;20255;-56
2024/01/19 03:10:17;;;;;;;28.40;14.73;;;;;;;-3.04;87.18;99556.75;5068694;28;20205;-59
2024/01/19 03:12:45;;;;;;;31.70;14.63;;;;;;;-3.04;86.95;99556.75;5069739;28;20611;-58
2024/01/19 03:15:13;;;;;;;28.63;15.97;;;;;;;-3.03;87.15;99548.38;5070258;28;20254;-58
2024/01/19 03:17:42;;;;;;;27.30;14.30;;;;;;;-3.00;87.37;99555.19;5070861;28;20616;-57
2024/01/19 03:20:11;;;;;;;24.80;14.10;;;;;;;-2.99;87.06;99550.19;5068625;28;20213;-57
2024/01/19 03:22:39;;;;;;;29.60;13.10;;;;;;;-2.99;87.20;99550.19;5057770;28;20198;-56
2024/01/19 03:25:07;;;;;;;27.40;14.97;;;;;;;-2.94;87.72;99566.34;5069213;28;20232;-57
2024/01/19 03:27:35;;;;;;;27.90;13.73;;;;;;;-3.01;86.60;99561.03;5069914;28;20710;-62
2024/01/19 03:30:04;;;;;;;25.07;13.17;;;;;;;-3.02;87.40;99580.34;5070184;28;20293;-57
2024/01/19 03:32:31;;;;;;;24.67;13.53;;;;;;;-2.99;86.93;99584.63;5063636;28;20227;-57
2024/01/19 03:35:01;;;;;;;22.60;13.00;;;;;;;-3.04;86.91;99586.13;5069813;28;20205;-58
2024/01/19 03:37:29;;;;;;;20.37;12.63;;;;;;;-3.00;86.96;99605.59;5066287;28;20198;-58
2024/01/19 03:39:56;;;;;;;24.50;13.10;;;;;;;-3.00;86.70;99608.13;5063437;28;20209;-57
2024/01/19 03:42:26;;;;;;;22.20;12.63;;;;;;;-2.99;86.50;99610.69;5065892;28;20345;-58
2024/01/19 03:44:54;;;;;;;28.60;14.00;;;;;;;-3.01;86.45;99614.81;5070858;28;20292;-60
2024/01/19 03:47:22;;;;;;;27.00;13.30;;;;;;;-3.09;86.17;99613.69;5074277;28;20216;-58
2024/01/19 03:49:50;;;;;;;24.30;12.63;;;;;;;-3.14;86.71;99617.69;5069731;28;20282;-55
2024/01/19 03:52:19;;;;;;;25.23;13.10;;;;;;;-3.14;87.06;99620.22;5073987;28;20600;-57
2024/01/19 03:54:47;;;;;;;22.27;13.00;;;;;;;-3.16;86.85;99620.16;5073886;28;20217;-60
2024/01/19 03:57:15;;;;;;;24.90;12.70;;;;;;;-3.09;87.17;99628.81;5069661;28;20588;-57
2024/01/19 03:59:43;;;;;;;28.90;15.47;;;;;;;-3.02;87.61;99640.84;5069014;28;20206;-58
2024/01/19 04:02:11;;;;;;;29.00;16.53;;;;;;;-3.03;86.41;99641.63;5069488;28;20371;-58
2024/01/19 04:04:39;;;;;;;34.27;17.73;;;;;;;-3.11;86.80;99645.53;5073839;28;21124;-57
2024/01/19 04:07:07;;;;;;;34.63;16.03;;;;;;;-3.17;86.73;99652.84;5073398;28;20571;-57
2024/01/19 04:09:37;;;;;;;32.47;16.33;;;;;;;-3.21;86.55;99659.44;5070578;28;20197;-58
2024/01/19 04:12:11;;;;;;;31.90;16.97;;;;;;;-3.28;86.76;99671.75;5072929;28;20297;-57
2024/01/19 04:14:40;;;;;;;30.13;15.10;;;;;;;-3.39;86.50;99666.31;5068874;28;20251;-56
2024/01/19 04:17:08;;;;;;;33.20;17.40;;;;;;;-3.42;86.55;99676.28;5065065;28;20201;-57
2024/01/19 04:19:37;;;;;;;24.83;14.63;;;;;;;-3.47;86.46;99688.69;5072176;28;20228;-58
2024/01/19 04:22:06;;;;;;;29.90;15.47;;;;;;;-3.53;86.35;99690.97;5071846;28;20216;-59
2024/01/19 04:24:34;;;;;;;31.33;16.13;;;;;;;-3.58;86.22;99692.44;5072685;28;20224;-59
2024/01/19 04:27:03;;;;;;;26.03;13.10;;;;;;;-3.57;86.52;99694.19;5068962;28;20573;-56
2024/01/19 04:29:31;;;;;;;24.83;13.03;;;;;;;-3.53;86.44;99711.13;5064398;28;20556;-58
2024/01/19 04:31:59;;;;;;;26.13;14.10;;;;;;;-3.53;86.33;99711.13;5073128;28;20580;-58
2024/01/19 04:34:27;;;;;;;21.83;12.03;;;;;;;-3.49;86.43;99720.53;5056771;28;20237;-57
2024/01/19 04:36:55;;;;;;;21.20;12.37;;;;;;;-3.47;86.20;99730.63;5072437;28;20300;-58
2024/01/19 04:39:23;;;;;;;22.90;12.47;;;;;;;-3.44;86.40;99731.63;5073183;28;20294;-58
2024/01/19 04:41:51;;;;;;;25.83;12.27;;;;;;;-3.40;86.13;99738.50;5072941;28;20202;-62
2024/01/19 04:44:20;;;;;;;22.53;11.07;;;;;;;-3.35;85.92;99750.41;5063053;28;20606;-57
2024/01/19 04:46:48;;;;;;;20.37;11.93;;;;;;;-3.38;85.41;99745.28;5065514;28;20551;-57
2024/01/19 04:49:16;;;;;;;21.20;11.73;;;;;;;-3.37;85.97;99741.94;5071258;28;20317;-56
2024/01/19 04:51:43;;;;;;;21.60;11.10;;;;;;;-3.34;85.94;99742.06;5067373;28;20202;-57
2024/01/19 04:54:11;;;;;;;20.70;12.13;;;;;;;-3.38;85.18;99725.97;5072749;28;20668;-59
2024/01/19 04:56:39;;;;;;;21.20;11.20;;;;;;;-3.37;85.27;99734.38;5072391;28;20251;-57
2024/01/19 04:59:09;;;;;;;19.53;10.90;;;;;;;-3.38;85.23;99742.75;5072623;28;20298;-58
2024/01/19 05:01:38;;;;;;;19.30;10.83;;;;;;;-3.36;85.51;99738.63;5072022;28;20208;-57
2024/01/19 05:04:06;;;;;;;18.40;10.73;;;;;;;-3.35;85.85;99735.28;5071381;28;20288;-62
2024/01/19 05:06:34;;;;;;;21.90;11.00;;;;;;;-3.32;85.48;99745.50;5072744;28;20296;-58
2024/01/19 05:09:03;;;;;;;17.83;9.67;;;;;;;-3.32;85.50;99750.53;5072234;28;20248;-57
2024/01/19 05:11:31;;;;;;;18.23;9.23;;;;;;;-3.30;85.42;99759.00;5071794;28;20576;-57
2024/01/19 05:13:59;;;;;;;16.63;9.93;;;;;;;-3.29;85.50;99758.22;5068436;28;20236;-56
2024/01/19 05:16:26;;;;;;;15.20;8.80;;;;;;;-3.28;84.73;99760.78;5072330;28;20563;-58
2024/01/19 05:18:56;;;;;;;17.23;9.37;;;;;;;-3.28;84.88;99767.47;5068595;28;20213;-59
2024/01/19 05:21:24;;;;;;;17.13;10.03;;;;;;;-3.30;84.76;99764.91;5069902;28;20205;-57
2024/01/19 05:23:51;;;;;;;19.60;9.77;;;;;;;-3.33;84.33;99771.50;5072252;28;20648;-57
2024/01/19 05:26:19;;;;;;;16.30;8.90;;;;;;;-3.40;84.75;99766.19;5071890;28;20567;-58
2024/01/19 05:28:47;;;;;;;18.03;9.70;;;;;;;-3.41;84.30;99779.59;5070834;28;20198;-56
2024/01/19 05:31:15;;;;;;;18.07;8.77;;;;;;;-3.40;84.45;99788.00;5071910;28;20205;-60
2024/01/19 05:33:43;;;;;;;19.50;10.83;;;;;;;-3.41;84.19;99784.63;5072153;28;20633;-57
2024/01/19 05:36:12;;;;;;;16.70;9.70;;;;;;;-3.39;83.77;99789.72;5070152;28;20205;-57
2024/01/19 05:38:40;;;;;;;18.03;10.00;;;;;;;-3.40;83.60;99777.94;5067898;28;20210;-57
2024/01/19 05:41:09;;;;;;;19.23;10.10;;;;;;;-3.33;83.79;99789.13;5072151;28;20231;-56
2024/01/19 05:43:37;;;;;;;22.27;10.93;;;;;;;-3.32;83.84;99796.72;5066873;28;20201;-59
2024/01/19 05:46:05;;;;;;;22.33;10.60;;;;;;;-3.35;83.71;99790.69;5069472;28;20209;-57
2024/01/19 05:48:33;;;;;;;21.00;11.90;;;;;;;-3.32;84.13;99790.84;5063030;28;20264;-57
2024/01/19 05:51:01;;;;;;;23.00;11.33;;;;;;;-3.29;83.65;99796.00;5063736;28;20285;-65
2024/01/19 05:53:31;;;;;;;21.87;11.30;;;;;;;-3.26;83.95;99796.97;5070960;28;20206;-58
2024/01/19 05:55:59;;;;;;;21.53;12.10;;;;;;;-3.29;82.62;99791.81;5071199;28;20221;-57
2024/01/19 05:58:26;;;;;;;20.50;12.23;;;;;;;-3.29;83.38;99814.47;5071601;28;20208;-60
2024/01/19 06:00:54;;;;;;;20.13;10.53;;;;;;;-3.33;82.87;99811.78;5067663;28;20203;-59
2024/01/19 06:03:22;;;;;;;20.30;10.10;;;;;;;-3.35;82.64;99821.81;5061587;28;20255;-63
2024/01/19 06:05:50;;;;;;;19.57;9.53;;;;;;;-3.33;83.05;99826.91;5070086;28;20193;-57
2024/01/19 06:08:18;;;;;;;20.43;10.20;;;;;;;-3.35;82.22;99834.41;5060542;28;20202;-57
2024/01/19 06:10:47;;;;;;;16.60;9.97;;;;;;;-3.36;82.08;99822.59;5071118;28;20243;-57
2024/01/19 06:13:15;;;;;;;17.13;9.77;;;;;;;-3.37;81.94;99830.97;5071424;28;20626;-58
2024/01/19 06:15:43;;;;;;;20.10;10.00;;;;;;;-3.43;81.82;99824.00;5070734;28;20229;-56
2024/01/19 06:18:11;;;;;;;19.07;9.50;;;;;;;-3.53;82.15;99823.59;5064909;28;20255;-57
2024/01/19 06:20:41;;;;;;;16.03;8.43;;;;;;;-3.53;82.19;99837.03;5060889;28;20217;-56
2024/01/19 06:23:10;;;;;;;17.77;8.93;;;;;;;-3.51;81.85;99835.41;5068552;28;20683;-57
2024/01/19 06:25:39;;;;;;;16.47;9.03;;;;;;;-3.48;81.97;99839.75;5068061;28;20206;-58
2024/01/19 06:28:09;;;;;;;17.37;9.50;;;;;;;-3.48;81.91;99840.59;5066378;28;20821;-57
2024/01/19 06:30:37;;;;;;;18.13;8.97;;;;;;;-3.47;82.18;99839.78;5068278;28;20193;-58
2024/01/19 06:33:06;;;;;;;14.50;8.43;;;;;;;-3.46;81.57;99839.00;5067501;28;20209;-61
2024/01/19 06:35:35;;;;;;;20.80;10.70;;;;;;;-3.46;80.99;99849.09;5068276;28;20225;-58
2024/01/19 06:38:04;;;;;;;13.23;7.90;;;;;;;-3.52;80.51;99848.81;5057790;28;20718;-57
2024/01/19 06:40:32;;;;;;;13.67;8.23;;;;;;;-3.48;80.80;99849.81;5057678;28;20668;-59
2024/01/19 06:43:00;;;;;;;17.30;9.50;;;;;;;-3.48;80.28;99853.19;5071410;28;20209;-57
2024/01/19 06:45:29;;;;;;;13.40;8.47;;;;;;;-3.51;80.62;99850.53;5060865;28;20201;-57
2024/01/19 06:47:57;;;;;;;14.30;7.93;;;;;;;-3.50;81.14;99859.84;5066445;28;20210;-59
2024/01/19 06:50:26;;;;;;;16.00;9.60;;;;;;;-3.52;80.86;99863.06;5068309;28;20245;-57
2024/01/19 06:52:54;;;;;;;16.83;9.37;;;;;;;-3.55;80.21;99858.75;5071220;28;20278;-61
2024/01/19 06:55:25;;;;;;;14.93;9.03;;;;;;;-3.57;80.38;99862.88;5060145;28;20214;-58
2024/01/19 06:57:54;;;;;;;17.40;8.90;;;;;;;-3.55;80.96;99857.91;5064943;28;20631;-58
2024/01/19 07:00:21;;;;;;;16.27;9.07;;;;;;;-3.55;80.55;99858.75;5071000;28;20824;-57
2024/01/19 07:02:51;;;;;;;13.97;8.20;;;;;;;-3.51;80.50;99857.22;5071324;28;20232;-58
2024/01/19 07:05:19;;;;;;;15.67;9.17;;;;;;;-3.52;80.55;99858.91;5070121;28;20289;-57
2024/01/19 07:07:47;;;;;;;19.40;10.57;;;;;;;-3.49;80.56;99860.69;5070556;28;20228;-56
2024/01/19 07:10:15;;;;;;;18.77;9.60;;;;;;;-3.47;80.25;99866.63;5070499;28;20197;-56
2024/01/19 07:12:43;;;;;;;13.73;8.87;;;;;;;-3.49;79.97;99859.03;5071666;28;20204;-56
2024/01/19 07:15:11;;;;;;;13.47;8.47;;;;;;;-3.52;79.82;99856.38;5062177;28;20214;-57
2024/01/19 07:17:39;;;;;;;17.93;9.63;;;;;;;-3.46;80.13;99866.72;5068487;28;20288;-58
2024/01/19 07:20:10;;;;;;;14.53;8.43;;;;;;;-3.41;80.45;99870.28;5070841;28;20205;-59
2024/01/19 07:22:38;;;;;;;18.73;9.50;;;;;;;-3.35;80.33;99882.28;5071851;28;20205;-59
2024/01/19 07:25:07;;;;;;;17.47;10.90;;;;;;;-3.33;79.63;99879.81;5073340;28;20566;-57
2024/01/19 07:27:35;;;;;;;21.50;11.57;;;;;;;-3.31;80.50;99884.13;5074495;28;20197;-56
2024/01/19 07:30:03;;;;;;;17.10;10.90;;;;;;;-3.27;80.28;99890.16;5071414;28;20292;-57
2024/01/19 07:32:32;;;;;;;19.30;10.97;;;;;;;-3.24;79.81;99891.13;5074600;28;20598;-58
2024/01/19 07:35:22;;;;;;;19.03;10.97;;;;;;;-3.23;79.71;99889.47;5067887;28;20233;-64
2024/01/19 07:37:50;;;;;;;20.27;11.40;;;;;;;-3.24;79.53;99885.19;5068586;28;20552;-60
2024/01/19 07:40:18;;;;;;;18.27;10.73;;;;;;;-3.22;79.57;99893.69;5067114;28;20266;-57
2024/01/19 07:42:46;;;;;;;17.63;9.67;;;;;;;-3.25;79.61;99891.91;5074499;28;20201;-58
2024/01/19 07:45:14;;;;;;;16.57;9.30;;;;;;;-3.23;79.53;99892.84;5067914;28;20206;-56
2024/01/19 07:47:42;;;;;;;15.90;9.03;;;;;;;-3.19;79.31;99892.16;5065758;28;20209;-55
2024/01/19 07:50:11;;;;;;;16.57;9.60;;;;;;;-3.17;79.36;99897.25;5072941;28;20607;-58
2024/01/19 07:52:40;;;;;;;16.83;9.43;;;;;;;-3.12;79.69;99895.81;5072086;28;20223;-56
2024/01/19 07:55:09;;;;;;;16.87;9.17;;;;;;;-3.09;79.64;99892.53;5070501;28;20258;-58
2024/01/19 07:57:37;;;;;;;20.03;10.07;;;;;;;-3.07;79.04;99896.84;5073424;28;20571;-57
2024/01/19 08:00:06;;;;;;;16.23;9.80;;;;;;;-3.02;78.97;99891.97;5069594;28;20204;-58
2024/01/19 08:02:34;;;;;;;17.20;9.53;;;;;;;-2.97;78.96;99890.50;5066516;28;20228;-56
2024/01/19 08:05:02;;;;;;;16.03;9.77;;;;;;;-2.98;78.11;99884.63;5069897;28;20251;-59
2024/01/19 08:07:30;;;;;;;16.77;9.23;;;;;;;-2.95;78.75;99879.66;5066030;28;20664;-57
2024/01/19 08:10:00;;;;;;;19.83;10.27;;;;;;;-2.93;78.58;99883.13;5071308;28;20289;-62
2024/01/19 08:12:27;;;;;;;18.87;10.53;;;;;;;-2.91;78.61;99878.13;5071716;28;20228;-57
2024/01/19 08:14:57;;;;;;;17.10;9.97;;;;;;;-2.89;78.49;99868.97;5070939;28;20197;-58
2024/01/19 08:17:25;;;;;;;17.97;10.40;;;;;;;-2.84;78.84;99876.72;5067261;28;20198;-57
2024/01/19 08:19:53;;;;;;;19.53;9.30;;;;;;;-2.83;78.16;99870.91;5070214;28;20206;-57
2024/01/19 08:22:21;;;;;;;19.00;11.10;;;;;;;-2.83;78.45;99876.81;5073339;28;20205;-56
2024/01/19 08:24:49;;;;;;;17.60;10.30;;;;;;;-2.85;78.53;99875.88;5071775;28;20259;-57
2024/01/19 08:27:19;;;;;;;18.43;10.93;;;;;;;-2.87;78.48;99881.63;5065846;28;21217;-57
2024/01/19 08:29:53;;;;;;;22.47;12.77;;;;;;;-2.94;78.87;99871.34;5064389;28;20217;-57
2024/01/19 08:32:23;;;;;;;17.93;10.90;;;;;;;-2.96;79.30;99877.97;5067360;28;20204;-58
2024/01/19 08:34:51;;;;;;;19.60;12.17;;;;;;;-2.96;79.71;99883.00;5071605;28;20635;-56
2024/01/19 08:37:19;;;;;;;18.80;11.33;;;;;;;-2.97;79.77;99890.50;5066459;28;20248;-57
2024/01/19 08:39:47;;;;;;;18.83;12.23;;;;;;;-3.01;79.82;99889.53;5077985;28;20230;-57
2024/01/19 08:42:15;;;;;;;21.53;12.60;;;;;;;-3.00;80.17;99888.72;5071438;28;20232;-56
2024/01/19 08:44:45;;;;;;;24.00;12.73;;;;;;;-2.95;80.94;99889.75;5071321;28;20284;-56
2024/01/19 08:47:13;;;;;;;22.70;12.57;;;;;;;-2.90;80.11;99887.44;5062789;28;20668;-57
2024/01/19 08:49:43;;;;;;;23.13;12.93;;;;;;;-2.85;79.98;99892.66;5063979;28;20284;-57
2024/01/19 08:52:11;;;;;;;19.60;11.77;;;;;;;-2.80;80.60;99893.69;5067538;28;20205;-57
2024/01/19 08:54:39;;;;;;;24.50;12.93;;;;;;;-2.75;79.44;99900.66;5067866;28;20213;-55
2024/01/19 08:57:07;;;;;;;25.03;13.53;;;;;;;-2.73;79.80;99898.16;5062747;28;20575;-58
2024/01/19 08:59:38;;;;;;;20.50;12.00;;;;;;;-2.75;80.09;99904.84;5069817;28;20201;-59
2024/01/19 09:02:08;;;;;;;21.23;11.47;;;;;;;-2.77;80.03;99898.84;5065916;28;20634;-57
2024/01/19 09:04:36;;;;;;;21.93;12.77;;;;;;;-2.79;80.30;99900.47;5072173;28;20197;-59
2024/01/19 09:07:04;;;;;;;19.67;12.03;;;;;;;-2.77;80.51;99903.91;5065812;28;20220;-58
2024/01/19 09:09:32;;;;;;;25.60;13.57;;;;;;;-2.76;80.45;99906.50;5063167;28;20285;-57
2024/01/19 09:12:00;;;;;;;22.70;13.20;;;;;;;-2.77;79.83;99906.41;5069396;28;20628;-57
2024/01/19 09:14:28;;;;;;;21.83;12.10;;;;;;;-2.74;80.52;99906.53;5064927;28;20209;-57
2024/01/19 09:16:56;;;;;;;20.00;12.93;;;;;;;-2.70;80.26;99910.91;5071419;28;20640;-58
2024/01/19 09:19:26;;;;;;;26.47;13.63;;;;;;;-2.68;80.26;99911.84;5061227;28;20205;-55
2024/01/19 09:21:54;;;;;;;24.10;12.90;;;;;;;-2.67;80.54;99906.84;5067653;28;20651;-58
2024/01/19 09:24:22;;;;;;;20.67;12.23;;;;;;;-2.62;80.34;99909.53;5069976;28;20205;-62
2024/01/19 09:26:49;;;;;;;22.83;12.17;;;;;;;-2.62;80.43;99907.00;5067930;28;20799;-56
2024/01/19 09:29:17;;;;;;;22.13;13.00;;;;;;;-2.58;79.97;99908.84;5065882;28;20201;-55
2024/01/19 09:31:47;;;;;;;20.70;11.33;;;;;;;-2.46;80.34;99913.53;5072241;28;20201;-58
2024/01/19 09:34:15;;;;;;;23.43;12.53;;;;;;;-2.41;80.02;99906.13;5069433;28;20209;-57
2024/01/19 09:36:45;;;;;;;24.63;13.20;;;;;;;-2.35;79.68;99916.47;5071433;28;20672;-57
2024/01/19 09:39:13;;;;;;;18.70;11.67;;;;;;;-2.33;78.97;99923.25;5070971;28;20293;-59
2024/01/19 09:41:47;;;;;;;18.90;11.67;;;;;;;-2.29;79.20;99920.06;5069103;28;20237;-57
2024/01/19 09:44:19;;;;;;;22.23;11.93;;;;;;;-2.24;78.81;99931.19;5067645;28;20192;-58
2024/01/19 09:47:08;;;;;;;23.23;12.03;;;;;;;-2.16;78.38;99923.91;5069686;28;20558;-58
2024/01/19 09:49:42;;;;;;;22.47;12.43;;;;;;;-2.13;78.20;99931.59;5070669;28;20233;-56
2024/01/19 09:52:26;;;;;;;23.73;12.60;;;;;;;-2.14;78.19;99939.97;5070769;28;20208;-55
2024/01/19 09:54:55;;;;;;;19.43;11.53;;;;;;;-2.11;78.08;99940.06;5066142;28;20208;-59
2024/01/19 09:57:23;;;;;;;19.23;10.60;;;;;;;-2.05;78.45;99935.28;5070071;28;20600;-61
2024/01/19 09:59:51;;;;;;;21.47;12.00;;;;;;;-2.01;77.89;99936.25;5070572;28;20435;-56
2024/01/19 10:02:24;;;;;;;22.00;11.60;;;;;;;-1.98;77.87;99942.25;5070433;28;20235;-57
2024/01/19 10:04:53;;;;;;;23.03;13.47;;;;;;;-1.96;78.06;99939.78;5070168;28;20214;-58
2024/01/19 10:07:23;;;;;;;23.03;11.63;;;;;;;-1.87;77.46;99956.94;5070208;28;20235;-57
2024/01/19 10:09:52;;;;;;;22.33;11.83;;;;;;;-1.78;77.38;99962.31;5070072;28;20209;-58
2024/01/19 10:12:22;;;;;;;23.07;12.37;;;;;;;-1.66;77.14;99952.66;5061575;28;20209;-58
2024/01/19 10:14:50;;;;;;;20.60;11.70;;;;;;;-1.59;76.77;99961.31;5060127;28;20206;-57
2024/01/19 10:17:18;;;;;;;23.53;12.80;;;;;;;-1.55;76.25;99958.94;5070377;28;20270;-58
2024/01/19 10:19:50;;;;;;;23.07;12.93;;;;;;;-1.51;76.24;99957.38;5070328;28;20201;-56
2024/01/19 10:22:30;;;;;;;22.87;11.70;;;;;;;-1.48;76.25;99955.84;5068159;28;20235;-56
2024/01/19 10:25:03;;;;;;;25.33;12.47;;;;;;;-1.47;75.89;99949.13;5070851;28;20661;-56
2024/01/19 10:27:48;;;;;;;24.80;11.87;;;;;;;-1.47;76.04;99951.66;5065360;28;20194;-56
2024/01/19 10:30:19;;;;;;;19.37;10.43;;;;;;;-1.44;76.35;99948.38;5062877;28;20683;-58
2024/01/19 10:32:49;;;;;;;22.60;12.30;;;;;;;-1.39;76.24;99949.41;5063045;28;20250;-57
2024/01/19 10:35:20;;;;;;;22.17;11.27;;;;;;;-1.38;76.42;99936.81;5066753;28;20202;-55
2024/01/19 10:37:50;;;;;;;18.63;11.70;;;;;;;-1.33;75.76;99947.06;5063242;28;20221;-58
2024/01/19 10:40:22;;;;;;;21.70;12.37;;;;;;;-1.33;75.88;99949.59;5068464;28;20204;-57
2024/01/19 10:42:53;;;;;;;22.73;11.60;;;;;;;-1.32;75.43;99936.19;5063300;28;20296;-55
2024/01/19 10:45:23;;;;;;;21.40;12.60;;;;;;;-1.27;75.41;99935.50;5070412;28;20201;-57
2024/01/19 10:47:53;;;;;;;26.70;13.40;;;;;;;-1.23;75.31;99942.38;5069297;28;20213;-57
2024/01/19 10:50:24;;;;;;;20.43;12.07;;;;;;;-1.17;75.33;99941.75;5066308;28;20633;-58
2024/01/19 10:52:55;;;;;;;21.80;11.57;;;;;;;-1.12;75.15;99942.75;5078450;28;20215;-56
2024/01/19 10:55:25;;;;;;;25.20;11.90;;;;;;;-1.03;75.09;99934.59;5066455;28;20200;-56
2024/01/19 10:57:55;;;;;;;21.07;12.20;;;;;;;-0.97;74.56;99950.84;5068924;28;20710;-56
2024/01/19 11:00:26;;;;;;;21.63;11.77;;;;;;;-0.93;74.11;99938.31;5069378;28;20704;-57
2024/01/19 11:02:56;;;;;;;21.70;11.73;;;;;;;-0.93;74.52;99933.25;5069440;28;20209;-57
2024/01/19 11:05:25;;;;;;;18.30;11.30;;;;;;;-0.86;74.43;99936.00;5069852;28;20224;-55
2024/01/19 11:07:57;;;;;;;20.53;11.73;;;;;;;-0.79;73.77;99934.56;5067533;28;20292;-53
2024/01/19 11:10:27;;;;;;;22.30;12.17;;;;;;;-0.75;74.10;99937.22;5064727;28;20664;-60
2024/01/19 11:12:56;;;;;;;17.97;11.07;;;;;;;-0.74;73.44;99948.19;5065267;28;20262;-57
2024/01/19 11:15:31;;;;;;;22.30;11.40;;;;;;;-0.76;73.50;99934.66;5070273;28;20212;-57
2024/01/19 11:18:01;;;;;;;21.03;11.13;;;;;;;-0.72;74.07;99941.53;5069504;28;20741;-57
2024/01/19 11:20:31;;;;;;;17.83;10.13;;;;;;;-0.66;73.87;99935.78;5070544;28;20201;-57
2024/01/19 11:23:02;;;;;;;23.30;11.07;;;;;;;-0.59;73.48;99938.59;5064430;28;20649;-57
2024/01/19 11:25:49;;;;;;;18.83;11.47;;;;;;;-0.57;73.14;99942.00;5069685;28;20201;-56
2024/01/19 11:28:24;;;;;;;18.73;10.97;;;;;;;-0.54;73.21;99938.72;5063551;28;20209;-56